Terminal Aerodrome Forecast
Issued by NWS Cleveland, OH

Home | Current Version | Previous Version | Text Only | Print | Product List | Glossary Off
Versions: 1 2 3 4 5 6 7 8 9 10 11 12 13 14 15 16

041
FTUS41 KCLE 192300
TAFYNG
TAF
KYNG 192327Z 2000/2024 32012KT P6SM SCT025 OVC035
      TEMPO 2002/2006 BKN025
     FM200600 29005KT P6SM SCT025 OVC035
     FM201700 34010KT P6SM BKN035 OVC250
     FM202200 34009KT P6SM BKN100 OVC200=

USA.gov is the U.S. government's official web portal to all federal, state and local government web resources and services.